createdAt,value
2023-08-28T00:01:29.983Z,79.98
2023-08-28T00:03:56.781Z,79.91
2023-08-28T00:06:29.755Z,79.96
2023-08-28T00:09:01.772Z,79.64
2023-08-28T00:11:39.158Z,79.45
2023-08-28T00:14:05.802Z,79.79
2023-08-28T00:16:32.361Z,79.60
2023-08-28T00:18:59.081Z,79.94
2023-08-28T00:21:25.720Z,79.92
2023-08-28T00:23:52.372Z,80.09
2023-08-28T00:26:22.193Z,79.81
2023-08-28T00:28:48.863Z,80.08
2023-08-28T00:31:15.558Z,79.90
2023-08-28T00:33:44.560Z,80.10
2023-08-28T00:36:17.224Z,79.54
2023-08-28T00:38:45.073Z,79.77
2023-08-28T00:41:12.668Z,79.79
2023-08-28T00:43:39.397Z,79.92
2023-08-28T00:46:24.976Z,80.13
2023-08-28T00:48:51.594Z,80.19
2023-08-28T00:51:18.313Z,79.87
2023-08-28T00:53:45.065Z,79.96
2023-08-28T00:56:11.729Z,79.90
2023-08-28T00:58:38.459Z,79.09
2023-08-28T01:01:05.201Z,79.60
2023-08-28T01:03:31.852Z,80.12
2023-08-28T01:06:27.075Z,79.97
2023-08-28T01:09:04.555Z,79.73
2023-08-28T01:11:37.773Z,79.57
2023-08-28T01:14:21.491Z,79.85
2023-08-28T01:16:49.997Z,80.35
2023-08-28T01:19:38.104Z,80.09
2023-08-28T01:22:11.430Z,80.03
2023-08-28T01:24:46.049Z,80.11
2023-08-28T01:27:19.129Z,79.48
2023-08-28T01:29:45.827Z,79.99
2023-08-28T01:32:20.614Z,79.85
2023-08-28T01:34:47.249Z,79.92
2023-08-28T01:37:24.068Z,79.75
2023-08-28T01:39:58.842Z,79.74
2023-08-28T01:42:29.677Z,80.11
2023-08-28T01:45:03.102Z,79.85
2023-08-28T01:50:11.368Z,80.13
2023-08-28T01:52:38.717Z,80.09
2023-08-28T01:55:06.605Z,80.17
2023-08-28T01:57:35.440Z,80.45
2023-08-28T02:00:13.583Z,80.51
2023-08-28T02:02:49.035Z,80.44
2023-08-28T02:05:19.968Z,80.93
2023-08-28T02:07:46.798Z,80.32
2023-08-28T02:10:20.716Z,79.80
2023-08-28T02:13:14.647Z,79.85
2023-08-28T02:15:52.401Z,79.79
2023-08-28T02:18:30.076Z,79.81
2023-08-28T02:20:57.253Z,79.91
2023-08-28T02:23:26.976Z,79.81
2023-08-28T02:25:54.145Z,80.03
2023-08-28T02:28:20.851Z,80.03
2023-08-28T02:30:47.621Z,80.02
2023-08-28T02:33:14.740Z,79.92
2023-08-28T02:35:43.194Z,80.12
2023-08-28T02:38:10.471Z,80.66
2023-08-28T02:40:38.867Z,80.44
2023-08-28T02:43:10.962Z,80.37
2023-08-28T02:45:40.877Z,80.38
2023-08-28T02:48:21.873Z,79.30
2023-08-28T02:50:58.063Z,79.78
2023-08-28T02:53:24.632Z,79.57
2023-08-28T02:56:12.706Z,79.55
2023-08-28T02:58:39.408Z,80.07
2023-08-28T03:01:06.069Z,80.23
2023-08-28T03:03:35.264Z,80.31
2023-08-28T03:06:02.876Z,80.62
2023-08-28T03:08:29.990Z,80.20
2023-08-28T03:10:57.194Z,79.69
2023-08-28T03:13:32.528Z,79.33
2023-08-28T03:16:03.570Z,79.15
2023-08-28T03:18:30.640Z,79.22
2023-08-28T03:20:57.312Z,79.33
2023-08-28T03:23:28.569Z,79.42
2023-08-28T03:25:55.303Z,79.83
2023-08-28T03:28:24.946Z,79.49
2023-08-28T03:30:54.733Z,79.09
2023-08-28T03:33:21.354Z,79.49
2023-08-28T03:35:50.407Z,79.66
2023-08-28T03:38:18.151Z,79.50
2023-08-28T03:40:58.107Z,79.96
2023-08-28T03:43:25.629Z,80.14
2023-08-28T03:45:52.278Z,80.19
2023-08-28T03:48:20.569Z,80.38
2023-08-28T03:50:47.492Z,80.33
2023-08-28T03:53:14.192Z,80.09
2023-08-28T03:55:40.728Z,80.02
2023-08-28T04:28:57.817Z,83.32
2023-08-28T04:31:24.814Z,84.66
2023-08-28T04:33:51.623Z,84.18
2023-08-28T04:36:18.381Z,83.71
2023-08-28T04:38:45.099Z,82.42
2023-08-28T04:41:11.909Z,81.37
2023-08-28T04:43:39.364Z,80.39
2023-08-28T04:46:06.291Z,79.60
2023-08-28T04:48:33.138Z,79.18
2023-08-28T04:50:59.982Z,78.48
2023-08-28T04:53:26.684Z,78.04
2023-08-28T04:55:54.181Z,77.97
2023-08-28T04:58:21.722Z,77.83
2023-08-28T05:00:48.460Z,77.49
2023-08-28T05:03:15.436Z,77.39
2023-08-28T05:05:44.747Z,77.36
2023-08-28T05:08:13.049Z,77.08
2023-08-28T05:10:39.710Z,77.09
2023-08-28T05:13:06.638Z,76.90
2023-08-28T05:15:34.651Z,76.76
2023-08-28T05:18:01.840Z,77.13
2023-08-28T05:20:29.826Z,76.79
2023-08-28T05:22:56.859Z,76.98
2023-08-28T05:25:24.458Z,77.15
2023-08-28T05:27:56.477Z,77.19
2023-08-28T05:30:24.894Z,76.90
2023-08-28T05:32:51.612Z,77.11
2023-08-28T05:35:18.696Z,77.04
2023-08-28T05:37:45.535Z,76.96
2023-08-28T05:40:15.822Z,76.48
2023-08-28T05:42:45.452Z,76.70
2023-08-28T05:45:12.452Z,76.80
2023-08-28T05:47:39.266Z,76.65
2023-08-28T05:50:06.885Z,76.37
2023-08-28T05:52:33.848Z,76.58
2023-08-28T05:55:00.575Z,76.46
2023-08-28T05:57:27.253Z,76.16
2023-08-28T05:59:54.045Z,74.92
2023-08-28T06:02:20.787Z,75.52
2023-08-28T06:04:50.366Z,75.63
2023-08-28T06:07:18.488Z,74.90
2023-08-28T06:09:45.477Z,74.48
2023-08-28T06:12:13.101Z,74.95
2023-08-28T06:14:39.889Z,75.51
2023-08-28T06:17:07.219Z,75.43
2023-08-28T06:19:34.175Z,75.28
2023-08-28T06:22:05.842Z,75.19
2023-08-28T06:24:32.959Z,74.81
2023-08-28T06:27:00.131Z,75.34
2023-08-28T06:29:27.125Z,75.56
2023-08-28T06:31:54.008Z,74.85
2023-08-28T06:34:21.248Z,75.43
2023-08-28T06:36:50.619Z,75.41
2023-08-28T06:39:17.421Z,75.12
2023-08-28T06:41:44.370Z,74.48
2023-08-28T06:44:12.918Z,74.80
2023-08-28T06:46:39.697Z,73.68
2023-08-28T06:49:06.466Z,74.45
2023-08-28T06:51:33.190Z,73.89
2023-08-28T06:53:59.884Z,73.96
2023-08-28T06:56:26.634Z,74.94
2023-08-28T06:58:53.401Z,74.89
2023-08-28T07:01:20.482Z,74.49
2023-08-28T07:03:47.890Z,74.22
2023-08-28T07:06:15.005Z,74.94
2023-08-28T07:08:41.768Z,75.42
2023-08-28T07:11:11.338Z,75.33
2023-08-28T07:13:38.705Z,75.23
2023-08-28T07:16:05.472Z,74.12
2023-08-28T07:18:32.251Z,74.67
2023-08-28T07:20:59.049Z,74.49
2023-08-28T07:23:26.595Z,74.29
2023-08-28T07:25:53.392Z,74.10
2023-08-28T07:28:21.385Z,74.79
2023-08-28T07:30:48.176Z,74.09
2023-08-28T07:33:15.102Z,74.54
2023-08-28T07:35:46.379Z,74.50
2023-08-28T07:38:14.834Z,71.95
2023-08-28T07:40:42.155Z,73.21
2023-08-28T07:43:08.984Z,73.95
2023-08-28T07:45:35.687Z,74.62
2023-08-28T07:48:02.557Z,73.38
2023-08-28T07:50:31.162Z,73.54
2023-08-28T07:53:01.329Z,72.60
2023-08-28T07:55:28.490Z,73.33
2023-08-28T07:57:55.204Z,72.90
2023-08-28T08:00:23.132Z,72.67
2023-08-28T08:02:52.568Z,73.61
2023-08-28T08:05:20.159Z,72.75
2023-08-28T08:07:47.054Z,72.23
2023-08-28T08:10:14.880Z,72.40
2023-08-28T08:12:41.771Z,72.07
2023-08-28T08:15:09.312Z,72.03
2023-08-28T08:17:39.008Z,71.95
2023-08-28T08:20:12.305Z,71.52
2023-08-28T08:22:39.664Z,72.39
2023-08-28T08:25:07.591Z,70.79
2023-08-28T08:27:34.884Z,71.33
2023-08-28T08:30:01.663Z,71.64
2023-08-28T08:32:28.397Z,71.82
2023-08-28T08:34:58.475Z,72.56
2023-08-28T08:37:25.185Z,71.52
2023-08-28T08:39:51.997Z,71.14
2023-08-28T08:42:18.884Z,70.24
2023-08-28T08:44:45.753Z,71.07
2023-08-28T08:47:12.974Z,70.21
2023-08-28T08:49:41.331Z,70.89
2023-08-28T08:52:10.034Z,71.24
2023-08-28T08:54:41.916Z,71.59
2023-08-28T08:57:19.439Z,70.79
2023-08-28T08:59:47.367Z,71.64
2023-08-28T09:02:14.345Z,72.08
2023-08-28T09:04:42.712Z,71.58
2023-08-28T09:07:14.792Z,71.07
2023-08-28T09:09:45.949Z,70.30
2023-08-28T09:12:14.844Z,70.35
2023-08-28T09:14:41.898Z,69.16
2023-08-28T09:17:08.705Z,68.74
2023-08-28T09:19:35.982Z,67.47
2023-08-28T09:22:04.700Z,67.34
2023-08-28T09:24:31.618Z,70.17
2023-08-28T09:26:58.305Z,70.44
2023-08-28T09:29:25.425Z,69.37
2023-08-28T09:32:00.861Z,70.43
2023-08-28T09:34:37.324Z,70.75
2023-08-28T09:37:04.589Z,71.67
2023-08-28T09:39:33.345Z,71.39
2023-08-28T09:42:00.267Z,70.62
2023-08-28T09:44:27.186Z,68.80
2023-08-28T09:46:54.571Z,67.88
2023-08-28T09:49:21.244Z,69.46
2023-08-28T09:51:50.392Z,69.41
2023-08-28T09:54:17.871Z,69.76
2023-08-28T09:56:45.653Z,67.83
2023-08-28T09:59:14.479Z,67.05
2023-08-28T10:01:41.765Z,68.15
2023-08-28T10:04:10.876Z,67.83
2023-08-28T10:06:52.375Z,67.43
2023-08-28T10:09:21.161Z,68.17
2023-08-28T10:11:51.448Z,69.45
2023-08-28T10:14:35.229Z,68.52
2023-08-28T10:17:06.501Z,68.90
2023-08-28T10:19:39.697Z,69.52
2023-08-28T10:22:16.968Z,69.20
2023-08-28T10:24:45.342Z,69.05
2023-08-28T10:27:28.544Z,71.32
2023-08-28T10:29:57.844Z,70.01
2023-08-28T10:32:25.639Z,70.48
2023-08-28T10:34:58.834Z,69.80
2023-08-28T10:37:29.130Z,68.96
2023-08-28T10:40:02.177Z,67.95
2023-08-28T10:42:33.615Z,69.03
2023-08-28T10:45:02.516Z,66.88
2023-08-28T10:47:32.853Z,67.81
2023-08-28T10:49:59.643Z,67.60
2023-08-28T10:52:29.179Z,67.24
2023-08-28T10:55:07.892Z,68.33
2023-08-28T10:57:40.592Z,67.76
2023-08-28T11:00:22.988Z,67.63
2023-08-28T11:03:16.506Z,67.13
2023-08-28T11:05:43.812Z,66.14
2023-08-28T11:08:13.088Z,65.76
2023-08-28T11:11:12.860Z,67.61
2023-08-28T11:13:39.871Z,67.82
2023-08-28T11:16:10.604Z,67.81
2023-08-28T11:19:01.469Z,67.75
2023-08-28T11:21:40.935Z,68.29
2023-08-28T11:24:29.447Z,67.47
2023-08-28T11:27:27.151Z,65.12
2023-08-28T11:29:56.885Z,64.66
2023-08-28T11:32:27.626Z,67.12
2023-08-28T11:34:55.694Z,67.09
2023-08-28T11:37:38.390Z,66.85
2023-08-28T11:40:24.501Z,67.37
2023-08-28T11:43:08.511Z,67.30
2023-08-28T11:45:48.246Z,66.90
2023-08-28T11:48:19.675Z,65.40
2023-08-28T11:50:46.441Z,66.82
2023-08-28T11:53:13.130Z,67.69
2023-08-28T11:55:40.307Z,67.75
2023-08-28T11:58:08.729Z,69.32
2023-08-28T12:00:35.609Z,68.22
2023-08-28T12:03:02.723Z,66.71
2023-08-28T12:05:30.087Z,67.47
2023-08-28T12:08:03.727Z,66.64
2023-08-28T12:10:40.567Z,66.63
2023-08-28T12:13:07.276Z,67.28
2023-08-28T12:15:38.469Z,65.99
2023-08-28T12:18:07.391Z,66.11
2023-08-28T12:20:35.259Z,67.77
2023-08-28T12:23:02.779Z,66.63
2023-08-28T12:25:40.275Z,65.92
2023-08-28T12:28:12.102Z,66.32
2023-08-28T12:30:42.873Z,68.01
2023-08-28T12:33:10.410Z,67.15
2023-08-28T12:35:39.013Z,66.46
2023-08-28T12:38:05.976Z,65.95
2023-08-28T12:40:43.637Z,64.61
2023-08-28T12:43:14.453Z,66.40
2023-08-28T12:45:43.223Z,65.11
2023-08-28T12:48:09.965Z,66.83
2023-08-28T12:50:41.470Z,65.72
2023-08-28T12:53:08.837Z,66.47
2023-08-28T12:55:36.041Z,66.97
2023-08-28T12:58:02.928Z,65.88
2023-08-28T13:00:29.888Z,66.11
2023-08-28T13:02:56.836Z,65.96
2023-08-28T13:05:23.718Z,66.93
2023-08-28T13:07:50.449Z,66.66
2023-08-28T13:10:17.681Z,66.30
2023-08-28T13:12:44.556Z,66.95
2023-08-28T13:15:11.357Z,65.60
2023-08-28T13:17:43.669Z,66.75
2023-08-28T13:20:11.111Z,66.65
2023-08-28T13:22:38.183Z,67.16
2023-08-28T13:25:05.697Z,66.62
2023-08-28T13:27:33.746Z,66.18
2023-08-28T13:30:06.420Z,66.81
2023-08-28T13:32:34.822Z,67.33
2023-08-28T13:35:01.685Z,65.07
2023-08-28T13:37:29.189Z,63.96
2023-08-28T13:39:57.410Z,65.32
2023-08-28T13:42:24.207Z,65.73
2023-08-28T13:44:53.061Z,66.02
2023-08-28T13:47:20.557Z,66.42
2023-08-28T13:49:51.280Z,65.00
2023-08-28T13:52:18.674Z,65.56
2023-08-28T13:54:45.907Z,65.72
2023-08-28T13:57:12.683Z,67.13
2023-08-28T13:59:39.457Z,66.77
2023-08-28T14:02:06.767Z,67.36
2023-08-28T14:04:34.470Z,66.78
2023-08-28T14:07:01.903Z,67.04
2023-08-28T14:09:29.059Z,67.09
2023-08-28T14:11:55.729Z,66.09
2023-08-28T14:14:22.527Z,65.70
2023-08-28T14:16:53.141Z,65.19
2023-08-28T14:19:26.538Z,64.37
2023-08-28T14:21:57.394Z,64.67
2023-08-28T14:24:28.801Z,65.04
2023-08-28T14:26:59.108Z,65.15
2023-08-28T14:29:30.384Z,64.93
2023-08-28T14:31:58.862Z,64.81
2023-08-28T14:34:28.425Z,64.83
2023-08-28T14:36:56.562Z,64.66
2023-08-28T14:39:23.525Z,65.26
2023-08-28T14:41:50.358Z,65.63
2023-08-28T14:44:17.086Z,66.09
2023-08-28T14:46:43.894Z,66.78
2023-08-28T14:49:10.580Z,67.25
2023-08-28T14:51:37.299Z,65.82
2023-08-28T14:54:05.439Z,67.69
2023-08-28T14:56:32.397Z,67.08
2023-08-28T14:58:59.664Z,68.31
2023-08-28T15:01:26.904Z,68.79
2023-08-28T15:03:54.127Z,67.43
2023-08-28T15:06:20.939Z,69.65
2023-08-28T15:08:47.649Z,70.68
2023-08-28T15:11:14.449Z,72.69
2023-08-28T15:13:41.125Z,72.38
2023-08-28T15:16:08.739Z,76.59
2023-08-28T15:18:35.651Z,79.26
2023-08-28T15:21:02.989Z,82.55
2023-08-28T15:23:29.716Z,85.44
2023-08-28T15:25:56.957Z,84.98
2023-08-28T15:28:23.760Z,86.65
2023-08-28T15:30:53.620Z,84.95
2023-08-28T15:33:20.474Z,86.19
2023-08-28T15:35:47.137Z,85.48
2023-08-28T15:38:13.932Z,86.55
2023-08-28T15:40:42.019Z,83.65
2023-08-28T15:43:09.494Z,85.86
2023-08-28T15:45:36.360Z,85.86
2023-08-28T15:48:06.429Z,83.13
2023-08-28T15:50:33.697Z,80.92
2023-08-28T15:53:00.430Z,80.60
2023-08-28T15:55:27.196Z,81.36
2023-08-28T15:57:53.878Z,78.99
2023-08-28T16:00:20.916Z,79.18
2023-08-28T16:02:48.874Z,78.74
2023-08-28T16:05:15.785Z,78.66
2023-08-28T16:07:42.652Z,77.61
2023-08-28T16:10:10.370Z,75.38
2023-08-28T16:12:37.062Z,77.21
2023-08-28T16:15:04.158Z,77.79
2023-08-28T16:17:33.375Z,78.01
2023-08-28T16:20:00.240Z,78.11
2023-08-28T16:22:26.978Z,77.79
2023-08-28T16:24:53.679Z,76.67
2023-08-28T16:27:20.427Z,77.53
2023-08-28T16:29:47.209Z,76.94
2023-08-28T16:32:13.915Z,76.58
2023-08-28T16:34:40.765Z,75.94
2023-08-28T16:37:07.510Z,75.64
2023-08-28T16:39:34.335Z,76.02
2023-08-28T16:42:01.063Z,75.64
2023-08-28T16:44:27.878Z,75.16
2023-08-28T16:46:54.593Z,75.50
2023-08-28T16:49:21.523Z,75.96
2023-08-28T16:51:48.260Z,76.33
2023-08-28T16:54:15.143Z,77.00
2023-08-28T16:56:41.806Z,77.63
2023-08-28T16:59:08.670Z,77.54
2023-08-28T17:01:35.429Z,78.15
2023-08-28T17:04:02.266Z,78.76
2023-08-28T17:06:29.922Z,78.63
2023-08-28T17:08:56.928Z,78.91
2023-08-28T17:11:24.284Z,78.62
2023-08-28T17:13:50.987Z,77.69
2023-08-28T17:16:17.812Z,76.70
2023-08-28T17:18:48.831Z,76.35
2023-08-28T17:21:16.124Z,76.32
2023-08-28T17:23:43.109Z,76.34
2023-08-28T17:26:12.201Z,77.07
2023-08-28T17:28:39.054Z,77.74
2023-08-28T17:31:05.903Z,77.17
2023-08-28T17:33:32.621Z,77.05
2023-08-28T17:36:02.436Z,77.58
2023-08-28T17:38:30.133Z,78.04
2023-08-28T17:40:56.874Z,77.27
2023-08-28T17:43:25.021Z,78.00
2023-08-28T17:45:52.265Z,78.04
2023-08-28T17:48:19.065Z,77.50
2023-08-28T17:50:46.055Z,77.53
2023-08-28T17:53:13.066Z,77.08
2023-08-28T17:55:39.790Z,77.18
2023-08-28T17:58:06.612Z,77.25
2023-08-28T18:00:33.333Z,77.13
2023-08-28T18:03:05.794Z,76.57
2023-08-28T18:05:40.665Z,75.90
2023-08-28T18:08:08.645Z,76.56
2023-08-28T18:10:37.656Z,76.95
2023-08-28T18:13:04.767Z,76.33
2023-08-28T18:15:31.989Z,76.77
2023-08-28T18:17:58.747Z,76.60
2023-08-28T18:20:25.965Z,76.57
2023-08-28T18:22:52.675Z,75.77
2023-08-28T18:25:19.596Z,75.33
2023-08-28T18:28:04.160Z,76.45
2023-08-28T18:30:33.974Z,76.13
2023-08-28T18:33:03.941Z,75.29
2023-08-28T18:35:31.177Z,76.15
2023-08-28T18:37:58.976Z,76.62
2023-08-28T18:40:29.934Z,76.56
2023-08-28T18:42:56.695Z,76.00
2023-08-28T18:45:25.917Z,76.40
2023-08-28T18:47:54.509Z,76.65
2023-08-28T18:50:22.272Z,76.70
2023-08-28T18:52:49.711Z,76.36
2023-08-28T18:55:30.055Z,76.19
2023-08-28T18:57:59.693Z,75.60
2023-08-28T19:00:28.882Z,75.91
2023-08-28T19:02:56.398Z,76.42
2023-08-28T19:05:26.218Z,76.96
2023-08-28T19:07:53.114Z,77.46
2023-08-28T19:10:19.964Z,77.06
2023-08-28T19:12:47.122Z,76.93
2023-08-28T19:15:15.194Z,76.93
2023-08-28T19:17:43.320Z,75.75
2023-08-28T19:20:10.491Z,76.52
2023-08-28T19:22:37.234Z,77.55
2023-08-28T19:25:04.374Z,77.31
2023-08-28T19:27:32.237Z,77.10
2023-08-28T19:29:59.017Z,77.25
2023-08-28T19:32:44.471Z,76.02
2023-08-28T19:35:15.613Z,76.52
2023-08-28T19:37:44.038Z,76.19
2023-08-28T19:40:13.714Z,76.82
2023-08-28T19:42:42.868Z,76.64
2023-08-28T19:45:11.862Z,76.55
2023-08-28T19:47:39.567Z,78.09
2023-08-28T19:50:08.188Z,77.89
2023-08-28T19:52:36.038Z,78.26
2023-08-28T19:55:05.958Z,78.29
2023-08-28T19:57:34.283Z,77.77
2023-08-28T20:00:01.808Z,76.78
2023-08-28T20:02:32.549Z,78.61
2023-08-28T20:04:59.658Z,79.55
2023-08-28T20:07:26.345Z,80.69
2023-08-28T20:09:53.207Z,80.97
2023-08-28T20:12:19.982Z,80.35
2023-08-28T20:14:46.794Z,79.71
2023-08-28T20:17:13.658Z,79.33
2023-08-28T20:19:40.535Z,79.36
2023-08-28T20:22:07.236Z,79.85
2023-08-28T20:24:34.680Z,79.94
2023-08-28T20:27:02.394Z,80.45
2023-08-28T20:29:29.791Z,81.61
2023-08-28T20:31:56.495Z,80.85
2023-08-28T20:34:23.706Z,81.75
2023-08-28T20:36:51.373Z,81.31
2023-08-28T20:39:18.227Z,80.93
2023-08-28T20:41:46.000Z,79.55
2023-08-28T20:44:12.754Z,79.33
2023-08-28T20:46:39.426Z,78.56
2023-08-28T20:49:06.786Z,77.48
2023-08-28T20:51:34.179Z,76.91
2023-08-28T20:54:01.192Z,77.00
2023-08-28T20:56:27.900Z,75.95
2023-08-28T20:58:54.679Z,76.18
2023-08-28T21:01:21.496Z,75.20
2023-08-28T21:03:48.252Z,74.83
2023-08-28T21:06:14.946Z,75.39
2023-08-28T21:08:41.722Z,75.63
2023-08-28T21:11:08.517Z,75.08
2023-08-28T21:13:35.296Z,74.78
2023-08-28T21:16:02.324Z,74.34
2023-08-28T21:18:29.140Z,74.31
2023-08-28T21:20:55.911Z,74.86
2023-08-28T21:23:22.689Z,74.67
2023-08-28T21:25:50.439Z,74.71
2023-08-28T21:28:17.210Z,74.20
2023-08-28T21:30:46.754Z,74.79
2023-08-28T21:33:13.525Z,74.60
2023-08-28T21:35:40.198Z,74.33
2023-08-28T21:38:07.185Z,74.68
2023-08-28T21:40:34.086Z,74.69
2023-08-28T21:43:00.804Z,73.98
2023-08-28T21:45:27.572Z,73.57
2023-08-28T21:47:54.360Z,73.40
2023-08-28T21:50:40.954Z,73.97
2023-08-28T21:53:26.299Z,73.51
2023-08-28T21:56:11.581Z,73.34
2023-08-28T21:58:57.076Z,73.65
2023-08-28T22:01:42.157Z,73.06
2023-08-28T22:04:27.661Z,72.90
2023-08-28T22:07:12.841Z,73.43
2023-08-28T22:09:59.835Z,74.17
2023-08-28T22:12:32.159Z,74.10
2023-08-28T22:15:01.154Z,73.43
2023-08-28T22:17:28.388Z,74.45
2023-08-28T22:19:55.503Z,74.28
2023-08-28T22:22:22.213Z,73.61
2023-08-28T22:24:49.083Z,73.66
2023-08-28T22:27:15.735Z,74.14
2023-08-28T22:29:42.511Z,73.43
2023-08-28T22:32:09.310Z,73.68
2023-08-28T22:34:36.001Z,73.38
2023-08-28T22:37:02.656Z,73.35
2023-08-28T22:39:29.423Z,73.32
2023-08-28T22:41:56.146Z,73.96
2023-08-28T22:44:22.966Z,73.75
2023-08-28T22:46:49.683Z,74.07
2023-08-28T22:49:16.490Z,74.46
2023-08-28T22:51:43.134Z,74.37
2023-08-28T22:54:09.892Z,74.90
2023-08-28T22:56:36.671Z,75.51
2023-08-28T22:59:03.525Z,76.72
2023-08-28T23:01:30.316Z,76.95
2023-08-28T23:03:58.245Z,77.29
2023-08-28T23:06:25.074Z,77.22
2023-08-28T23:08:51.840Z,76.80
2023-08-28T23:11:18.568Z,76.73
2023-08-28T23:13:45.431Z,76.54
2023-08-28T23:16:12.182Z,76.43
2023-08-28T23:18:39.346Z,75.84
2023-08-28T23:21:05.995Z,78.74
2023-08-28T23:23:32.928Z,79.29
2023-08-28T23:25:59.659Z,80.61
2023-08-28T23:28:26.389Z,81.50
2023-08-28T23:30:53.108Z,81.73
2023-08-28T23:33:19.969Z,81.97
2023-08-28T23:35:46.697Z,81.97
2023-08-28T23:38:13.420Z,82.81
2023-08-28T23:40:40.149Z,82.12
2023-08-28T23:43:06.947Z,82.97
2023-08-28T23:45:33.706Z,83.25
2023-08-28T23:48:00.714Z,83.82
2023-08-28T23:50:27.558Z,83.80
2023-08-28T23:52:54.286Z,83.92
2023-08-28T23:55:20.954Z,83.47
2023-08-28T23:57:47.666Z,83.59
